sensor_id;sensor_type;location;lat;lon;timestamp;P1;durP1;ratioP1;P2;durP2;ratioP2
73266;SDS011;61495;53.400;7.608;2022-07-01T00:01:24;6.03;;;2.28;;
73266;SDS011;61495;53.400;7.608;2022-07-01T00:03:50;8.15;;;2.60;;
73266;SDS011;61495;53.400;7.608;2022-07-01T00:06:16;11.85;;;2.88;;
73266;SDS011;61495;53.400;7.608;2022-07-01T00:08:42;7.95;;;2.80;;
73266;SDS011;61495;53.400;7.608;2022-07-01T00:11:08;10.70;;;2.75;;
73266;SDS011;61495;53.400;7.608;2022-07-01T00:13:33;14.00;;;3.15;;
73266;SDS011;61495;53.400;7.608;2022-07-01T00:15:59;11.55;;;3.13;;
73266;SDS011;61495;53.400;7.608;2022-07-01T00:18:24;9.05;;;2.97;;
73266;SDS011;61495;53.400;7.608;2022-07-01T00:20:49;10.18;;;2.95;;
73266;SDS011;61495;53.400;7.608;2022-07-01T00:23:16;9.43;;;2.60;;
73266;SDS011;61495;53.400;7.608;2022-07-01T00:25:42;14.05;;;3.35;;
73266;SDS011;61495;53.400;7.608;2022-07-01T00:28:08;11.30;;;2.85;;
73266;SDS011;61495;53.400;7.608;2022-07-01T00:30:33;10.43;;;3.33;;
73266;SDS011;61495;53.400;7.608;2022-07-01T00:32:59;8.88;;;2.47;;
73266;SDS011;61495;53.400;7.608;2022-07-01T00:35:24;12.57;;;3.05;;
73266;SDS011;61495;53.400;7.608;2022-07-01T00:37:50;10.57;;;2.40;;
73266;SDS011;61495;53.400;7.608;2022-07-01T00:40:15;11.68;;;2.97;;
73266;SDS011;61495;53.400;7.608;2022-07-01T00:42:41;9.68;;;2.75;;
73266;SDS011;61495;53.400;7.608;2022-07-01T00:45:10;8.10;;;2.30;;
73266;SDS011;61495;53.400;7.608;2022-07-01T00:47:36;8.02;;;2.75;;
73266;SDS011;61495;53.400;7.608;2022-07-01T00:50:07;8.88;;;2.28;;
73266;SDS011;61495;53.400;7.608;2022-07-01T00:52:36;9.00;;;2.00;;
73266;SDS011;61495;53.400;7.608;2022-07-01T00:55:05;7.28;;;2.22;;
73266;SDS011;61495;53.400;7.608;2022-07-01T00:57:33;7.57;;;2.10;;
73266;SDS011;61495;53.400;7.608;2022-07-01T01:00:03;7.03;;;2.00;;
73266;SDS011;61495;53.400;7.608;2022-07-01T01:02:31;10.40;;;2.28;;
73266;SDS011;61495;53.400;7.608;2022-07-01T01:04:57;5.15;;;1.42;;
73266;SDS011;61495;53.400;7.608;2022-07-01T01:07:22;5.80;;;1.70;;
73266;SDS011;61495;53.400;7.608;2022-07-01T01:09:48;5.47;;;1.35;;
73266;SDS011;61495;53.400;7.608;2022-07-01T01:12:14;5.38;;;1.20;;
73266;SDS011;61495;53.400;7.608;2022-07-01T01:14:43;6.45;;;1.40;;
73266;SDS011;61495;53.400;7.608;2022-07-01T01:17:09;6.20;;;1.40;;
73266;SDS011;61495;53.400;7.608;2022-07-01T01:19:35;3.83;;;1.30;;
73266;SDS011;61495;53.400;7.608;2022-07-01T01:22:01;5.50;;;1.25;;
73266;SDS011;61495;53.400;7.608;2022-07-01T01:24:26;3.03;;;0.90;;
73266;SDS011;61495;53.400;7.608;2022-07-01T01:26:52;3.13;;;1.20;;
73266;SDS011;61495;53.400;7.608;2022-07-01T01:29:17;2.83;;;0.70;;
73266;SDS011;61495;53.400;7.608;2022-07-01T01:31:42;5.40;;;1.23;;
73266;SDS011;61495;53.400;7.608;2022-07-01T01:34:08;6.75;;;1.48;;
73266;SDS011;61495;53.400;7.608;2022-07-01T01:36:33;6.10;;;1.58;;
73266;SDS011;61495;53.400;7.608;2022-07-01T01:38:59;3.38;;;0.95;;
73266;SDS011;61495;53.400;7.608;2022-07-01T01:41:31;5.30;;;1.00;;
73266;SDS011;61495;53.400;7.608;2022-07-01T01:43:56;2.78;;;0.80;;
73266;SDS011;61495;53.400;7.608;2022-07-01T01:46:22;4.50;;;0.90;;
73266;SDS011;61495;53.400;7.608;2022-07-01T01:48:47;4.20;;;1.02;;
73266;SDS011;61495;53.400;7.608;2022-07-01T01:51:12;4.13;;;0.85;;
73266;SDS011;61495;53.400;7.608;2022-07-01T01:53:38;4.97;;;0.98;;
73266;SDS011;61495;53.400;7.608;2022-07-01T01:56:03;5.15;;;1.20;;
73266;SDS011;61495;53.400;7.608;2022-07-01T01:58:29;7.05;;;1.13;;
73266;SDS011;61495;53.400;7.608;2022-07-01T02:00:54;4.97;;;1.17;;
73266;SDS011;61495;53.400;7.608;2022-07-01T02:03:19;4.82;;;1.40;;
73266;SDS011;61495;53.400;7.608;2022-07-01T02:05:45;5.30;;;1.40;;
73266;SDS011;61495;53.400;7.608;2022-07-01T02:08:10;3.72;;;1.00;;
73266;SDS011;61495;53.400;7.608;2022-07-01T02:10:36;2.97;;;1.10;;
73266;SDS011;61495;53.400;7.608;2022-07-01T02:13:01;3.35;;;1.00;;
73266;SDS011;61495;53.400;7.608;2022-07-01T02:15:26;7.20;;;1.20;;
73266;SDS011;61495;53.400;7.608;2022-07-01T02:17:52;5.25;;;1.17;;
73266;SDS011;61495;53.400;7.608;2022-07-01T02:20:18;4.95;;;0.88;;
73266;SDS011;61495;53.400;7.608;2022-07-01T02:22:43;3.38;;;1.02;;
73266;SDS011;61495;53.400;7.608;2022-07-01T02:25:09;5.22;;;1.00;;
73266;SDS011;61495;53.400;7.608;2022-07-01T02:27:34;3.35;;;1.05;;
73266;SDS011;61495;53.400;7.608;2022-07-01T02:30:01;1.67;;;0.90;;
73266;SDS011;61495;53.400;7.608;2022-07-01T02:32:27;4.90;;;1.02;;
73266;SDS011;61495;53.400;7.608;2022-07-01T02:34:52;4.40;;;1.40;;
73266;SDS011;61495;53.400;7.608;2022-07-01T02:37:17;1.67;;;0.70;;
73266;SDS011;61495;53.400;7.608;2022-07-01T02:39:43;4.47;;;0.85;;
73266;SDS011;61495;53.400;7.608;2022-07-01T02:42:08;1.88;;;0.90;;
73266;SDS011;61495;53.400;7.608;2022-07-01T02:44:50;1.92;;;0.90;;
73266;SDS011;61495;53.400;7.608;2022-07-01T02:47:16;1.58;;;1.00;;
73266;SDS011;61495;53.400;7.608;2022-07-01T02:49:41;2.50;;;1.08;;
73266;SDS011;61495;53.400;7.608;2022-07-01T02:52:06;1.88;;;0.70;;
73266;SDS011;61495;53.400;7.608;2022-07-01T02:54:32;2.53;;;1.10;;
73266;SDS011;61495;53.400;7.608;2022-07-01T02:56:57;2.90;;;0.90;;
73266;SDS011;61495;53.400;7.608;2022-07-01T02:59:23;4.53;;;1.00;;
73266;SDS011;61495;53.400;7.608;2022-07-01T03:01:48;2.95;;;0.90;;
73266;SDS011;61495;53.400;7.608;2022-07-01T03:04:13;2.15;;;0.93;;
73266;SDS011;61495;53.400;7.608;2022-07-01T03:06:39;1.63;;;0.70;;
73266;SDS011;61495;53.400;7.608;2022-07-01T03:09:06;1.83;;;0.70;;
73266;SDS011;61495;53.400;7.608;2022-07-01T03:11:31;1.35;;;0.70;;
73266;SDS011;61495;53.400;7.608;2022-07-01T03:13:57;3.33;;;0.95;;
73266;SDS011;61495;53.400;7.608;2022-07-01T03:16:22;1.65;;;0.60;;
73266;SDS011;61495;53.400;7.608;2022-07-01T03:18:48;2.75;;;0.80;;
73266;SDS011;61495;53.400;7.608;2022-07-01T03:21:13;3.42;;;0.82;;
73266;SDS011;61495;53.400;7.608;2022-07-01T03:23:39;1.77;;;0.60;;
73266;SDS011;61495;53.400;7.608;2022-07-01T03:26:04;1.42;;;0.70;;
73266;SDS011;61495;53.400;7.608;2022-07-01T03:28:29;1.08;;;0.50;;
73266;SDS011;61495;53.400;7.608;2022-07-01T03:30:56;2.25;;;0.73;;
73266;SDS011;61495;53.400;7.608;2022-07-01T03:33:22;1.60;;;0.93;;
73266;SDS011;61495;53.400;7.608;2022-07-01T03:35:47;1.98;;;0.70;;
73266;SDS011;61495;53.400;7.608;2022-07-01T03:38:13;1.98;;;0.80;;
73266;SDS011;61495;53.400;7.608;2022-07-01T03:40:38;1.95;;;0.82;;
73266;SDS011;61495;53.400;7.608;2022-07-01T03:43:04;2.40;;;0.98;;
73266;SDS011;61495;53.400;7.608;2022-07-01T03:45:30;3.97;;;1.10;;
73266;SDS011;61495;53.400;7.608;2022-07-01T03:47:56;1.92;;;1.08;;
73266;SDS011;61495;53.400;7.608;2022-07-01T03:50:25;3.67;;;1.00;;
73266;SDS011;61495;53.400;7.608;2022-07-01T03:52:50;2.90;;;1.00;;
73266;SDS011;61495;53.400;7.608;2022-07-01T03:55:35;2.97;;;0.85;;
73266;SDS011;61495;53.400;7.608;2022-07-01T03:58:05;3.58;;;1.10;;
73266;SDS011;61495;53.400;7.608;2022-07-01T04:00:33;2.05;;;0.98;;
73266;SDS011;61495;53.400;7.608;2022-07-01T04:03:00;1.80;;;0.85;;
73266;SDS011;61495;53.400;7.608;2022-07-01T04:05:32;1.85;;;0.98;;
73266;SDS011;61495;53.400;7.608;2022-07-01T04:07:59;2.13;;;0.73;;
73266;SDS011;61495;53.400;7.608;2022-07-01T04:10:24;4.10;;;1.20;;
73266;SDS011;61495;53.400;7.608;2022-07-01T04:12:50;3.05;;;0.77;;
73266;SDS011;61495;53.400;7.608;2022-07-01T04:15:15;2.15;;;1.45;;
73266;SDS011;61495;53.400;7.608;2022-07-01T04:17:42;2.95;;;0.90;;
73266;SDS011;61495;53.400;7.608;2022-07-01T04:20:08;1.40;;;0.80;;
73266;SDS011;61495;53.400;7.608;2022-07-01T04:22:33;2.13;;;1.23;;
73266;SDS011;61495;53.400;7.608;2022-07-01T04:25:00;2.63;;;0.90;;
73266;SDS011;61495;53.400;7.608;2022-07-01T04:27:28;3.40;;;0.88;;
73266;SDS011;61495;53.400;7.608;2022-07-01T04:29:54;1.95;;;0.93;;
73266;SDS011;61495;53.400;7.608;2022-07-01T04:32:19;2.03;;;0.70;;
73266;SDS011;61495;53.400;7.608;2022-07-01T04:34:44;2.08;;;0.65;;
73266;SDS011;61495;53.400;7.608;2022-07-01T04:37:10;2.38;;;1.00;;
73266;SDS011;61495;53.400;7.608;2022-07-01T04:39:35;2.47;;;1.10;;
73266;SDS011;61495;53.400;7.608;2022-07-01T04:42:00;2.40;;;0.95;;
73266;SDS011;61495;53.400;7.608;2022-07-01T04:44:35;3.33;;;1.50;;
73266;SDS011;61495;53.400;7.608;2022-07-01T04:47:02;2.28;;;1.20;;
73266;SDS011;61495;53.400;7.608;2022-07-01T04:49:29;2.30;;;1.17;;
73266;SDS011;61495;53.400;7.608;2022-07-01T04:51:56;2.60;;;1.00;;
73266;SDS011;61495;53.400;7.608;2022-07-01T04:54:22;1.85;;;1.13;;
73266;SDS011;61495;53.400;7.608;2022-07-01T04:56:50;3.10;;;1.13;;
73266;SDS011;61495;53.400;7.608;2022-07-01T04:59:16;3.65;;;1.40;;
73266;SDS011;61495;53.400;7.608;2022-07-01T05:01:42;3.28;;;1.02;;
73266;SDS011;61495;53.400;7.608;2022-07-01T05:04:08;3.92;;;1.40;;
73266;SDS011;61495;53.400;7.608;2022-07-01T05:06:34;3.10;;;1.52;;
73266;SDS011;61495;53.400;7.608;2022-07-01T05:08:59;2.15;;;1.02;;
73266;SDS011;61495;53.400;7.608;2022-07-01T05:11:25;3.58;;;1.27;;
73266;SDS011;61495;53.400;7.608;2022-07-01T05:13:51;3.40;;;1.30;;
73266;SDS011;61495;53.400;7.608;2022-07-01T05:16:16;3.00;;;1.35;;
73266;SDS011;61495;53.400;7.608;2022-07-01T05:18:42;2.10;;;0.95;;
73266;SDS011;61495;53.400;7.608;2022-07-01T05:21:26;2.08;;;1.17;;
73266;SDS011;61495;53.400;7.608;2022-07-01T05:24:10;2.35;;;1.10;;
73266;SDS011;61495;53.400;7.608;2022-07-01T05:26:36;3.75;;;1.38;;
73266;SDS011;61495;53.400;7.608;2022-07-01T05:29:01;3.72;;;1.30;;
73266;SDS011;61495;53.400;7.608;2022-07-01T05:31:28;2.63;;;1.20;;
73266;SDS011;61495;53.400;7.608;2022-07-01T05:33:54;3.03;;;1.27;;
73266;SDS011;61495;53.400;7.608;2022-07-01T05:36:19;3.17;;;1.10;;
73266;SDS011;61495;53.400;7.608;2022-07-01T05:38:45;3.83;;;1.40;;
73266;SDS011;61495;53.400;7.608;2022-07-01T05:41:10;3.45;;;1.15;;
73266;SDS011;61495;53.400;7.608;2022-07-01T05:43:36;2.85;;;1.38;;
73266;SDS011;61495;53.400;7.608;2022-07-01T05:46:01;3.60;;;1.10;;
73266;SDS011;61495;53.400;7.608;2022-07-01T05:48:27;2.22;;;1.20;;
73266;SDS011;61495;53.400;7.608;2022-07-01T05:50:53;3.78;;;1.42;;
73266;SDS011;61495;53.400;7.608;2022-07-01T05:53:19;3.72;;;1.25;;
73266;SDS011;61495;53.400;7.608;2022-07-01T05:55:46;2.97;;;1.27;;
73266;SDS011;61495;53.400;7.608;2022-07-01T05:58:12;3.58;;;1.63;;
73266;SDS011;61495;53.400;7.608;2022-07-01T06:00:39;4.15;;;1.73;;
73266;SDS011;61495;53.400;7.608;2022-07-01T06:03:11;4.53;;;1.52;;
73266;SDS011;61495;53.400;7.608;2022-07-01T06:05:41;4.38;;;1.45;;
73266;SDS011;61495;53.400;7.608;2022-07-01T06:08:07;3.50;;;1.60;;
73266;SDS011;61495;53.400;7.608;2022-07-01T06:10:33;3.38;;;1.80;;
73266;SDS011;61495;53.400;7.608;2022-07-01T06:12:59;5.00;;;1.65;;
73266;SDS011;61495;53.400;7.608;2022-07-01T06:15:25;4.68;;;2.05;;
73266;SDS011;61495;53.400;7.608;2022-07-01T06:17:51;4.15;;;1.80;;
73266;SDS011;61495;53.400;7.608;2022-07-01T06:20:17;5.18;;;2.25;;
73266;SDS011;61495;53.400;7.608;2022-07-01T06:22:43;3.38;;;1.75;;
73266;SDS011;61495;53.400;7.608;2022-07-01T06:25:08;4.68;;;2.33;;
73266;SDS011;61495;53.400;7.608;2022-07-01T06:27:37;4.35;;;2.30;;
73266;SDS011;61495;53.400;7.608;2022-07-01T06:30:04;4.07;;;2.00;;
73266;SDS011;61495;53.400;7.608;2022-07-01T06:32:30;3.47;;;1.75;;
73266;SDS011;61495;53.400;7.608;2022-07-01T06:34:55;3.85;;;1.90;;
73266;SDS011;61495;53.400;7.608;2022-07-01T06:37:21;5.32;;;2.10;;
73266;SDS011;61495;53.400;7.608;2022-07-01T06:39:47;6.00;;;2.25;;
73266;SDS011;61495;53.400;7.608;2022-07-01T06:42:12;3.67;;;2.20;;
73266;SDS011;61495;53.400;7.608;2022-07-01T06:44:38;4.68;;;2.22;;
73266;SDS011;61495;53.400;7.608;2022-07-01T06:47:03;4.32;;;2.38;;
73266;SDS011;61495;53.400;7.608;2022-07-01T06:49:28;5.63;;;2.55;;
73266;SDS011;61495;53.400;7.608;2022-07-01T06:51:54;4.78;;;2.58;;
73266;SDS011;61495;53.400;7.608;2022-07-01T06:54:19;6.82;;;2.88;;
73266;SDS011;61495;53.400;7.608;2022-07-01T06:56:44;5.70;;;3.35;;
73266;SDS011;61495;53.400;7.608;2022-07-01T06:59:10;4.75;;;3.10;;
73266;SDS011;61495;53.400;7.608;2022-07-01T07:01:35;6.95;;;3.25;;
73266;SDS011;61495;53.400;7.608;2022-07-01T07:04:01;7.20;;;3.97;;
73266;SDS011;61495;53.400;7.608;2022-07-01T07:06:26;6.03;;;3.97;;
73266;SDS011;61495;53.400;7.608;2022-07-01T07:08:52;6.53;;;3.97;;
73266;SDS011;61495;53.400;7.608;2022-07-01T07:11:17;6.97;;;5.32;;
73266;SDS011;61495;53.400;7.608;2022-07-01T07:13:44;8.18;;;4.78;;
73266;SDS011;61495;53.400;7.608;2022-07-01T07:16:10;6.55;;;4.47;;
73266;SDS011;61495;53.400;7.608;2022-07-01T07:18:36;8.57;;;5.03;;
73266;SDS011;61495;53.400;7.608;2022-07-01T07:21:01;7.30;;;4.53;;
73266;SDS011;61495;53.400;7.608;2022-07-01T07:23:28;7.80;;;5.35;;
73266;SDS011;61495;53.400;7.608;2022-07-01T07:25:54;9.25;;;5.47;;
73266;SDS011;61495;53.400;7.608;2022-07-01T07:28:19;6.85;;;4.45;;
73266;SDS011;61495;53.400;7.608;2022-07-01T07:30:45;9.82;;;5.35;;
73266;SDS011;61495;53.400;7.608;2022-07-01T07:33:11;7.88;;;5.03;;
73266;SDS011;61495;53.400;7.608;2022-07-01T07:35:36;8.00;;;5.35;;
73266;SDS011;61495;53.400;7.608;2022-07-01T07:38:02;8.93;;;5.60;;
73266;SDS011;61495;53.400;7.608;2022-07-01T07:40:28;8.13;;;5.60;;
73266;SDS011;61495;53.400;7.608;2022-07-01T07:42:53;9.40;;;5.43;;
73266;SDS011;61495;53.400;7.608;2022-07-01T07:45:19;10.07;;;7.00;;
73266;SDS011;61495;53.400;7.608;2022-07-01T07:47:45;10.07;;;6.65;;
73266;SDS011;61495;53.400;7.608;2022-07-01T07:50:19;9.10;;;6.18;;
73266;SDS011;61495;53.400;7.608;2022-07-01T07:52:46;10.50;;;6.20;;
73266;SDS011;61495;53.400;7.608;2022-07-01T07:55:11;10.02;;;6.35;;
73266;SDS011;61495;53.400;7.608;2022-07-01T07:57:37;12.57;;;7.07;;
73266;SDS011;61495;53.400;7.608;2022-07-01T08:00:04;8.82;;;6.13;;
73266;SDS011;61495;53.400;7.608;2022-07-01T08:02:30;9.35;;;6.53;;
73266;SDS011;61495;53.400;7.608;2022-07-01T08:04:56;11.30;;;7.00;;
73266;SDS011;61495;53.400;7.608;2022-07-01T08:07:21;9.32;;;5.60;;
73266;SDS011;61495;53.400;7.608;2022-07-01T08:09:46;10.13;;;6.00;;
73266;SDS011;61495;53.400;7.608;2022-07-01T08:12:14;10.38;;;6.68;;
73266;SDS011;61495;53.400;7.608;2022-07-01T08:14:40;10.05;;;6.47;;
73266;SDS011;61495;53.400;7.608;2022-07-01T08:17:05;11.32;;;6.35;;
73266;SDS011;61495;53.400;7.608;2022-07-01T08:19:31;12.10;;;6.47;;
73266;SDS011;61495;53.400;7.608;2022-07-01T08:21:57;12.27;;;6.78;;
73266;SDS011;61495;53.400;7.608;2022-07-01T08:24:22;9.55;;;6.22;;
73266;SDS011;61495;53.400;7.608;2022-07-01T08:26:47;9.45;;;6.15;;
73266;SDS011;61495;53.400;7.608;2022-07-01T08:29:13;11.20;;;6.50;;
73266;SDS011;61495;53.400;7.608;2022-07-01T08:31:38;10.93;;;6.25;;
73266;SDS011;61495;53.400;7.608;2022-07-01T08:34:04;10.18;;;6.57;;
73266;SDS011;61495;53.400;7.608;2022-07-01T08:36:30;10.57;;;7.40;;
73266;SDS011;61495;53.400;7.608;2022-07-01T08:38:55;10.77;;;6.38;;
73266;SDS011;61495;53.400;7.608;2022-07-01T08:41:20;11.98;;;6.53;;
73266;SDS011;61495;53.400;7.608;2022-07-01T08:43:46;12.15;;;6.85;;
73266;SDS011;61495;53.400;7.608;2022-07-01T08:46:11;10.57;;;6.90;;
73266;SDS011;61495;53.400;7.608;2022-07-01T08:48:37;10.73;;;6.95;;
73266;SDS011;61495;53.400;7.608;2022-07-01T08:51:07;9.93;;;7.30;;
73266;SDS011;61495;53.400;7.608;2022-07-01T08:53:32;11.77;;;6.25;;
73266;SDS011;61495;53.400;7.608;2022-07-01T08:55:58;11.15;;;7.00;;
73266;SDS011;61495;53.400;7.608;2022-07-01T08:58:42;10.77;;;7.53;;
73266;SDS011;61495;53.400;7.608;2022-07-01T09:03:38;11.32;;;7.25;;
73266;SDS011;61495;53.400;7.608;2022-07-01T09:06:04;13.52;;;6.80;;
73266;SDS011;61495;53.400;7.608;2022-07-01T09:08:40;12.60;;;7.28;;
73266;SDS011;61495;53.400;7.608;2022-07-01T09:11:10;11.57;;;6.25;;
73266;SDS011;61495;53.400;7.608;2022-07-01T09:13:40;9.38;;;6.40;;
73266;SDS011;61495;53.400;7.608;2022-07-01T09:16:16;9.35;;;6.53;;
73266;SDS011;61495;53.400;7.608;2022-07-01T09:19:00;13.57;;;6.57;;
73266;SDS011;61495;53.400;7.608;2022-07-01T09:21:28;8.02;;;5.20;;
73266;SDS011;61495;53.400;7.608;2022-07-01T09:23:55;7.38;;;5.72;;
73266;SDS011;61495;53.400;7.608;2022-07-01T09:26:26;8.25;;;4.70;;
73266;SDS011;61495;53.400;7.608;2022-07-01T09:28:53;9.30;;;5.28;;
73266;SDS011;61495;53.400;7.608;2022-07-01T09:31:20;8.98;;;5.53;;
73266;SDS011;61495;53.400;7.608;2022-07-01T09:33:46;9.65;;;4.97;;
73266;SDS011;61495;53.400;7.608;2022-07-01T09:36:27;7.85;;;5.53;;
73266;SDS011;61495;53.400;7.608;2022-07-01T09:38:53;7.82;;;4.53;;
73266;SDS011;61495;53.400;7.608;2022-07-01T09:41:18;8.88;;;5.60;;
73266;SDS011;61495;53.400;7.608;2022-07-01T09:43:48;10.13;;;5.82;;
73266;SDS011;61495;53.400;7.608;2022-07-01T09:46:13;8.43;;;5.15;;
73266;SDS011;61495;53.400;7.608;2022-07-01T09:51:05;7.97;;;4.82;;
73266;SDS011;61495;53.400;7.608;2022-07-01T09:53:32;8.25;;;6.40;;
73266;SDS011;61495;53.400;7.608;2022-07-01T09:55:57;10.32;;;5.50;;
73266;SDS011;61495;53.400;7.608;2022-07-01T09:58:23;10.40;;;5.30;;
73266;SDS011;61495;53.400;7.608;2022-07-01T10:00:49;12.68;;;7.45;;
73266;SDS011;61495;53.400;7.608;2022-07-01T10:03:17;10.15;;;6.68;;
73266;SDS011;61495;53.400;7.608;2022-07-01T10:05:53;11.55;;;7.57;;
73266;SDS011;61495;53.400;7.608;2022-07-01T10:14:41;10.77;;;7.68;;
73266;SDS011;61495;53.400;7.608;2022-07-01T10:17:07;10.30;;;6.43;;
73266;SDS011;61495;53.400;7.608;2022-07-01T10:19:33;10.85;;;6.70;;
73266;SDS011;61495;53.400;7.608;2022-07-01T10:22:23;8.25;;;6.40;;
73266;SDS011;61495;53.400;7.608;2022-07-01T10:24:51;10.05;;;7.60;;
73266;SDS011;61495;53.400;7.608;2022-07-01T10:27:23;10.32;;;6.68;;
73266;SDS011;61495;53.400;7.608;2022-07-01T10:30:11;10.88;;;7.28;;
73266;SDS011;61495;53.400;7.608;2022-07-01T10:32:44;10.45;;;7.68;;
73266;SDS011;61495;53.400;7.608;2022-07-01T10:35:12;8.48;;;6.22;;
73266;SDS011;61495;53.400;7.608;2022-07-01T10:37:59;9.20;;;6.07;;
73266;SDS011;61495;53.400;7.608;2022-07-01T10:40:41;8.07;;;5.35;;
73266;SDS011;61495;53.400;7.608;2022-07-01T10:43:11;10.05;;;6.57;;
73266;SDS011;61495;53.400;7.608;2022-07-01T10:45:41;9.40;;;6.30;;
73266;SDS011;61495;53.400;7.608;2022-07-01T10:48:17;7.38;;;5.53;;
73266;SDS011;61495;53.400;7.608;2022-07-01T10:53:13;7.75;;;5.90;;
73266;SDS011;61495;53.400;7.608;2022-07-01T10:55:45;8.07;;;6.03;;
73266;SDS011;61495;53.400;7.608;2022-07-01T10:58:13;7.63;;;5.97;;
73266;SDS011;61495;53.400;7.608;2022-07-01T11:00:43;10.48;;;6.45;;
73266;SDS011;61495;53.400;7.608;2022-07-01T11:03:13;8.25;;;6.32;;
73266;SDS011;61495;53.400;7.608;2022-07-01T11:05:40;9.48;;;6.95;;
73266;SDS011;61495;53.400;7.608;2022-07-01T11:08:07;10.02;;;6.82;;
73266;SDS011;61495;53.400;7.608;2022-07-01T11:10:33;7.80;;;5.32;;
73266;SDS011;61495;53.400;7.608;2022-07-01T11:13:00;9.15;;;5.82;;
73266;SDS011;61495;53.400;7.608;2022-07-01T11:15:26;11.60;;;7.22;;
73266;SDS011;61495;53.400;7.608;2022-07-01T11:17:54;7.82;;;5.40;;
73266;SDS011;61495;53.400;7.608;2022-07-01T11:20:24;10.30;;;6.47;;
73266;SDS011;61495;53.400;7.608;2022-07-01T11:22:51;10.35;;;6.00;;
73266;SDS011;61495;53.400;7.608;2022-07-01T11:25:17;9.10;;;6.35;;
73266;SDS011;61495;53.400;7.608;2022-07-01T11:27:49;8.15;;;5.07;;
73266;SDS011;61495;53.400;7.608;2022-07-01T11:30:16;8.82;;;5.93;;
73266;SDS011;61495;53.400;7.608;2022-07-01T11:32:43;6.70;;;4.82;;
73266;SDS011;61495;53.400;7.608;2022-07-01T11:35:15;8.63;;;4.97;;
73266;SDS011;61495;53.400;7.608;2022-07-01T11:38:06;6.40;;;4.78;;
73266;SDS011;61495;53.400;7.608;2022-07-01T11:41:05;9.65;;;4.72;;
73266;SDS011;61495;53.400;7.608;2022-07-01T11:43:34;7.18;;;5.30;;
73266;SDS011;61495;53.400;7.608;2022-07-01T11:46:02;6.32;;;4.22;;
73266;SDS011;61495;53.400;7.608;2022-07-01T11:48:32;7.82;;;3.65;;
73266;SDS011;61495;53.400;7.608;2022-07-01T11:51:15;6.72;;;3.72;;
73266;SDS011;61495;53.400;7.608;2022-07-01T11:53:49;4.90;;;3.00;;
73266;SDS011;61495;53.400;7.608;2022-07-01T11:56:16;5.78;;;2.72;;
73266;SDS011;61495;53.400;7.608;2022-07-01T11:58:50;9.52;;;4.25;;
73266;SDS011;61495;53.400;7.608;2022-07-01T12:01:30;10.57;;;3.80;;
73266;SDS011;61495;53.400;7.608;2022-07-01T12:03:58;8.27;;;4.22;;
73266;SDS011;61495;53.400;7.608;2022-07-01T12:06:25;6.03;;;3.33;;
73266;SDS011;61495;53.400;7.608;2022-07-01T12:08:51;5.90;;;3.67;;
73266;SDS011;61495;53.400;7.608;2022-07-01T12:11:19;5.90;;;3.70;;
73266;SDS011;61495;53.400;7.608;2022-07-01T12:13:46;6.78;;;3.50;;
73266;SDS011;61495;53.400;7.608;2022-07-01T12:16:13;7.97;;;4.13;;
73266;SDS011;61495;53.400;7.608;2022-07-01T12:18:39;7.18;;;4.13;;
73266;SDS011;61495;53.400;7.608;2022-07-01T12:23:40;6.28;;;4.25;;
73266;SDS011;61495;53.400;7.608;2022-07-01T12:26:06;6.93;;;4.03;;
73266;SDS011;61495;53.400;7.608;2022-07-01T12:28:36;7.25;;;4.07;;
73266;SDS011;61495;53.400;7.608;2022-07-01T12:31:07;4.80;;;3.35;;
73266;SDS011;61495;53.400;7.608;2022-07-01T12:33:35;7.50;;;4.13;;
73266;SDS011;61495;53.400;7.608;2022-07-01T12:36:03;6.38;;;4.18;;
73266;SDS011;61495;53.400;7.608;2022-07-01T12:38:32;6.13;;;3.67;;
73266;SDS011;61495;53.400;7.608;2022-07-01T12:40:58;7.43;;;3.42;;
73266;SDS011;61495;53.400;7.608;2022-07-01T12:43:28;6.38;;;2.72;;
73266;SDS011;61495;53.400;7.608;2022-07-01T12:45:57;7.40;;;3.30;;
73266;SDS011;61495;53.400;7.608;2022-07-01T12:48:23;5.32;;;3.50;;
73266;SDS011;61495;53.400;7.608;2022-07-01T12:50:53;6.43;;;3.17;;
73266;SDS011;61495;53.400;7.608;2022-07-01T12:53:20;6.15;;;3.47;;
73266;SDS011;61495;53.400;7.608;2022-07-01T12:55:48;6.80;;;3.10;;
73266;SDS011;61495;53.400;7.608;2022-07-01T12:58:21;5.80;;;3.05;;
73266;SDS011;61495;53.400;7.608;2022-07-01T13:00:50;6.15;;;3.05;;
73266;SDS011;61495;53.400;7.608;2022-07-01T13:03:21;5.70;;;2.83;;
73266;SDS011;61495;53.400;7.608;2022-07-01T13:05:48;5.30;;;2.75;;
73266;SDS011;61495;53.400;7.608;2022-07-01T13:08:15;6.80;;;3.33;;
73266;SDS011;61495;53.400;7.608;2022-07-01T13:10:41;6.57;;;2.95;;
73266;SDS011;61495;53.400;7.608;2022-07-01T13:13:08;4.85;;;2.92;;
73266;SDS011;61495;53.400;7.608;2022-07-01T13:15:34;9.00;;;3.35;;
73266;SDS011;61495;53.400;7.608;2022-07-01T13:18:00;5.05;;;3.03;;
73266;SDS011;61495;53.400;7.608;2022-07-01T13:20:29;6.05;;;2.92;;
73266;SDS011;61495;53.400;7.608;2022-07-01T13:23:05;5.30;;;2.90;;
73266;SDS011;61495;53.400;7.608;2022-07-01T13:25:30;6.40;;;2.00;;
73266;SDS011;61495;53.400;7.608;2022-07-01T13:27:56;4.10;;;1.70;;
73266;SDS011;61495;53.400;7.608;2022-07-01T13:30:22;5.82;;;1.80;;
73266;SDS011;61495;53.400;7.608;2022-07-01T13:32:48;3.97;;;1.27;;
73266;SDS011;61495;53.400;7.608;2022-07-01T13:35:22;3.10;;;1.23;;
73266;SDS011;61495;53.400;7.608;2022-07-01T13:37:48;3.03;;;1.08;;
73266;SDS011;61495;53.400;7.608;2022-07-01T13:40:14;3.08;;;1.20;;
73266;SDS011;61495;53.400;7.608;2022-07-01T13:42:40;3.20;;;0.90;;
73266;SDS011;61495;53.400;7.608;2022-07-01T13:45:06;2.50;;;0.95;;
73266;SDS011;61495;53.400;7.608;2022-07-01T13:47:32;2.88;;;1.10;;
73266;SDS011;61495;53.400;7.608;2022-07-01T13:49:58;5.10;;;1.05;;
73266;SDS011;61495;53.400;7.608;2022-07-01T13:52:23;2.45;;;1.02;;
73266;SDS011;61495;53.400;7.608;2022-07-01T13:54:49;3.58;;;1.40;;
73266;SDS011;61495;53.400;7.608;2022-07-01T13:57:15;3.80;;;1.20;;
73266;SDS011;61495;53.400;7.608;2022-07-01T13:59:40;6.18;;;1.20;;
73266;SDS011;61495;53.400;7.608;2022-07-01T14:02:06;5.93;;;1.42;;
73266;SDS011;61495;53.400;7.608;2022-07-01T14:04:32;3.85;;;1.17;;
73266;SDS011;61495;53.400;7.608;2022-07-01T14:06:58;3.28;;;1.15;;
73266;SDS011;61495;53.400;7.608;2022-07-01T14:09:23;3.00;;;1.02;;
73266;SDS011;61495;53.400;7.608;2022-07-01T14:11:49;4.63;;;1.45;;
73266;SDS011;61495;53.400;7.608;2022-07-01T14:14:15;5.03;;;1.15;;
73266;SDS011;61495;53.400;7.608;2022-07-01T14:16:41;4.63;;;1.60;;
73266;SDS011;61495;53.400;7.608;2022-07-01T14:19:06;4.88;;;1.17;;
73266;SDS011;61495;53.400;7.608;2022-07-01T14:21:32;4.40;;;1.13;;
73266;SDS011;61495;53.400;7.608;2022-07-01T14:23:57;3.30;;;1.05;;
73266;SDS011;61495;53.400;7.608;2022-07-01T14:26:22;4.53;;;0.98;;
73266;SDS011;61495;53.400;7.608;2022-07-01T14:28:48;3.47;;;1.20;;
73266;SDS011;61495;53.400;7.608;2022-07-01T14:31:13;3.72;;;1.10;;
73266;SDS011;61495;53.400;7.608;2022-07-01T14:33:39;4.70;;;1.10;;
73266;SDS011;61495;53.400;7.608;2022-07-01T14:36:05;2.35;;;0.98;;
73266;SDS011;61495;53.400;7.608;2022-07-01T14:38:30;4.15;;;1.00;;
73266;SDS011;61495;53.400;7.608;2022-07-01T14:40:56;4.43;;;1.00;;
73266;SDS011;61495;53.400;7.608;2022-07-01T14:43:21;4.78;;;1.35;;
73266;SDS011;61495;53.400;7.608;2022-07-01T14:45:46;3.75;;;1.15;;
73266;SDS011;61495;53.400;7.608;2022-07-01T14:48:12;3.30;;;0.98;;
73266;SDS011;61495;53.400;7.608;2022-07-01T14:50:41;3.97;;;1.25;;
73266;SDS011;61495;53.400;7.608;2022-07-01T14:53:07;4.93;;;0.88;;
73266;SDS011;61495;53.400;7.608;2022-07-01T14:55:33;2.63;;;0.98;;
73266;SDS011;61495;53.400;7.608;2022-07-01T14:57:59;2.83;;;0.90;;
73266;SDS011;61495;53.400;7.608;2022-07-01T15:00:24;3.10;;;0.93;;
73266;SDS011;61495;53.400;7.608;2022-07-01T15:02:50;2.53;;;0.73;;